Sierra Grande, Argentina
Current Conditions -  °F | °C
As of 6:00 AM on Friday 31 Oct 2014 (Local Time) from SAZN Reporting Station
Clear Clear  
Wind Chill: 44°   Ceiling: Unl
Heat Index: 46°   Visibility: 6mi
Dew Point: 34°   Wind: 6mph
Humidity: 62%   Direction: 230°SW
Pressure: 30.09"   Gusts: NA
Location:  41.6°S, 65.37°W
Report Text: SAZN 310900Z 23005KT CAVOK 08/01 Q1019
Loading
Personal Weather Stations






























Interactive Weather Map
Tropical Storm Tracking
New forecast layout! Learn more

10-Day Weather Forecast

Advertisements
Track Severe Weather on mobile